sensor_id;sensor_type;location;lat;lon;timestamp;temperature;humidity
23560;DHT22;11958;50.836;4.438;2023-10-13T00:00:29;18.90;97.10
23560;DHT22;11958;50.836;4.438;2023-10-13T00:02:57;18.80;97.60
23560;DHT22;11958;50.836;4.438;2023-10-13T00:05:29;18.90;97.50
23560;DHT22;11958;50.836;4.438;2023-10-13T00:07:59;18.80;97.70
23560;DHT22;11958;50.836;4.438;2023-10-13T00:10:30;18.80;98.10
23560;DHT22;11958;50.836;4.438;2023-10-13T00:12:56;18.70;98.20
23560;DHT22;11958;50.836;4.438;2023-10-13T00:19:34;18.80;98.30
23560;DHT22;11958;50.836;4.438;2023-10-13T00:22:08;19.00;97.70
23560;DHT22;11958;50.836;4.438;2023-10-13T00:24:36;18.90;97.80
23560;DHT22;11958;50.836;4.438;2023-10-13T00:27:18;18.80;97.60
23560;DHT22;11958;50.836;4.438;2023-10-13T00:29:56;19.00;98.30
23560;DHT22;11958;50.836;4.438;2023-10-13T00:32:51;18.90;98.20
23560;DHT22;11958;50.836;4.438;2023-10-13T00:35:23;18.90;97.70
23560;DHT22;11958;50.836;4.438;2023-10-13T00:38:03;19.20;97.30
23560;DHT22;11958;50.836;4.438;2023-10-13T00:40:31;19.00;97.10
23560;DHT22;11958;50.836;4.438;2023-10-13T00:42:58;18.80;98.10
23560;DHT22;11958;50.836;4.438;2023-10-13T00:45:51;18.80;98.20
23560;DHT22;11958;50.836;4.438;2023-10-13T00:48:33;18.90;97.70
23560;DHT22;11958;50.836;4.438;2023-10-13T00:51:06;19.00;97.60
23560;DHT22;11958;50.836;4.438;2023-10-13T00:53:33;19.00;97.10
23560;DHT22;11958;50.836;4.438;2023-10-13T00:56:01;19.00;97.60
23560;DHT22;11958;50.836;4.438;2023-10-13T00:58:34;19.00;97.60
23560;DHT22;11958;50.836;4.438;2023-10-13T01:01:03;18.90;97.60
23560;DHT22;11958;50.836;4.438;2023-10-13T01:03:53;18.90;97.90
23560;DHT22;11958;50.836;4.438;2023-10-13T01:06:28;18.90;97.90
23560;DHT22;11958;50.836;4.438;2023-10-13T01:09:02;19.00;97.80
23560;DHT22;11958;50.836;4.438;2023-10-13T01:11:48;19.00;97.50
23560;DHT22;11958;50.836;4.438;2023-10-13T01:14:22;19.00;97.50
23560;DHT22;11958;50.836;4.438;2023-10-13T01:16:52;18.90;97.70
23560;DHT22;11958;50.836;4.438;2023-10-13T01:19:19;18.90;98.20
23560;DHT22;11958;50.836;4.438;2023-10-13T01:21:50;19.10;97.20
23560;DHT22;11958;50.836;4.438;2023-10-13T01:24:20;19.00;97.60
23560;DHT22;11958;50.836;4.438;2023-10-13T01:26:49;19.10;98.00
23560;DHT22;11958;50.836;4.438;2023-10-13T01:29:17;19.10;97.30
23560;DHT22;11958;50.836;4.438;2023-10-13T01:31:45;18.90;98.00
23560;DHT22;11958;50.836;4.438;2023-10-13T01:34:18;18.90;98.40
23560;DHT22;11958;50.836;4.438;2023-10-13T01:36:56;19.00;98.40
23560;DHT22;11958;50.836;4.438;2023-10-13T01:39:31;18.90;97.60
23560;DHT22;11958;50.836;4.438;2023-10-13T01:41:56;19.00;98.90
23560;DHT22;11958;50.836;4.438;2023-10-13T01:44:26;18.90;98.00
23560;DHT22;11958;50.836;4.438;2023-10-13T01:46:59;18.70;99.00
23560;DHT22;11958;50.836;4.438;2023-10-13T01:49:25;19.10;98.80
23560;DHT22;11958;50.836;4.438;2023-10-13T01:51:51;18.80;98.80
23560;DHT22;11958;50.836;4.438;2023-10-13T01:54:17;19.10;99.00
23560;DHT22;11958;50.836;4.438;2023-10-13T01:56:43;19.00;97.80
23560;DHT22;11958;50.836;4.438;2023-10-13T01:59:12;19.10;97.60
23560;DHT22;11958;50.836;4.438;2023-10-13T02:01:39;19.10;97.20
23560;DHT22;11958;50.836;4.438;2023-10-13T02:04:13;19.20;97.10
23560;DHT22;11958;50.836;4.438;2023-10-13T02:06:39;18.90;97.80
23560;DHT22;11958;50.836;4.438;2023-10-13T02:09:06;18.80;98.50
23560;DHT22;11958;50.836;4.438;2023-10-13T02:11:52;18.90;99.00
23560;DHT22;11958;50.836;4.438;2023-10-13T02:14:22;18.80;99.10
23560;DHT22;11958;50.836;4.438;2023-10-13T02:16:48;19.00;99.10
23560;DHT22;11958;50.836;4.438;2023-10-13T02:19:22;18.70;98.40
23560;DHT22;11958;50.836;4.438;2023-10-13T02:21:48;18.90;99.20
23560;DHT22;11958;50.836;4.438;2023-10-13T02:24:24;18.80;99.20
23560;DHT22;11958;50.836;4.438;2023-10-13T02:26:56;18.60;99.20
23560;DHT22;11958;50.836;4.438;2023-10-13T02:29:56;18.60;99.60
23560;DHT22;11958;50.836;4.438;2023-10-13T02:32:25;18.70;99.90
23560;DHT22;11958;50.836;4.438;2023-10-13T02:34:52;18.90;99.50
23560;DHT22;11958;50.836;4.438;2023-10-13T02:37:17;18.80;99.00
23560;DHT22;11958;50.836;4.438;2023-10-13T02:39:45;18.90;99.30
23560;DHT22;11958;50.836;4.438;2023-10-13T02:42:11;18.90;99.00
23560;DHT22;11958;50.836;4.438;2023-10-13T02:44:49;18.80;99.50
23560;DHT22;11958;50.836;4.438;2023-10-13T02:47:15;18.90;99.00
23560;DHT22;11958;50.836;4.438;2023-10-13T02:49:41;19.10;98.50
23560;DHT22;11958;50.836;4.438;2023-10-13T02:52:11;19.10;98.40
23560;DHT22;11958;50.836;4.438;2023-10-13T02:54:38;19.20;97.30
23560;DHT22;11958;50.836;4.438;2023-10-13T02:57:16;18.90;97.70
23560;DHT22;11958;50.836;4.438;2023-10-13T02:59:43;18.90;98.40
23560;DHT22;11958;50.836;4.438;2023-10-13T03:02:23;18.60;99.80
23560;DHT22;11958;50.836;4.438;2023-10-13T03:04:52;18.80;99.90
23560;DHT22;11958;50.836;4.438;2023-10-13T03:07:17;19.20;99.00
23560;DHT22;11958;50.836;4.438;2023-10-13T03:09:52;19.00;98.20
23560;DHT22;11958;50.836;4.438;2023-10-13T03:12:18;19.10;98.70
23560;DHT22;11958;50.836;4.438;2023-10-13T03:14:44;19.00;98.10
23560;DHT22;11958;50.836;4.438;2023-10-13T03:17:13;18.80;98.80
23560;DHT22;11958;50.836;4.438;2023-10-13T03:19:45;19.00;99.30
23560;DHT22;11958;50.836;4.438;2023-10-13T03:22:17;19.00;98.30
23560;DHT22;11958;50.836;4.438;2023-10-13T03:24:44;18.90;99.60
23560;DHT22;11958;50.836;4.438;2023-10-13T03:27:17;19.10;99.00
23560;DHT22;11958;50.836;4.438;2023-10-13T03:29:45;18.90;99.40
23560;DHT22;11958;50.836;4.438;2023-10-13T03:32:13;18.90;99.60
23560;DHT22;11958;50.836;4.438;2023-10-13T03:34:46;18.80;99.90
23560;DHT22;11958;50.836;4.438;2023-10-13T03:37:19;18.70;99.90
23560;DHT22;11958;50.836;4.438;2023-10-13T03:40:21;18.60;99.90
23560;DHT22;11958;50.836;4.438;2023-10-13T03:42:54;18.70;99.90
23560;DHT22;11958;50.836;4.438;2023-10-13T03:45:40;18.60;99.90
23560;DHT22;11958;50.836;4.438;2023-10-13T03:48:13;18.80;99.90
23560;DHT22;11958;50.836;4.438;2023-10-13T03:51:01;18.80;99.90
23560;DHT22;11958;50.836;4.438;2023-10-13T03:53:34;18.70;99.90
23560;DHT22;11958;50.836;4.438;2023-10-13T03:56:04;18.80;99.90
23560;DHT22;11958;50.836;4.438;2023-10-13T03:58:52;18.60;99.90
23560;DHT22;11958;50.836;4.438;2023-10-13T04:01:20;18.80;99.90
23560;DHT22;11958;50.836;4.438;2023-10-13T04:03:57;18.80;99.90
23560;DHT22;11958;50.836;4.438;2023-10-13T04:06:25;18.80;99.90
23560;DHT22;11958;50.836;4.438;2023-10-13T04:09:19;18.70;99.90
23560;DHT22;11958;50.836;4.438;2023-10-13T04:12:01;18.80;99.90
23560;DHT22;11958;50.836;4.438;2023-10-13T04:14:28;18.70;99.90
23560;DHT22;11958;50.836;4.438;2023-10-13T04:17:12;18.70;99.90
23560;DHT22;11958;50.836;4.438;2023-10-13T04:19:41;18.80;99.90
23560;DHT22;11958;50.836;4.438;2023-10-13T04:22:26;18.80;99.90
23560;DHT22;11958;50.836;4.438;2023-10-13T04:28:14;18.70;99.90
23560;DHT22;11958;50.836;4.438;2023-10-13T04:30:45;18.50;99.90
23560;DHT22;11958;50.836;4.438;2023-10-13T04:33:39;18.60;99.90
23560;DHT22;11958;50.836;4.438;2023-10-13T04:36:38;18.80;99.90
23560;DHT22;11958;50.836;4.438;2023-10-13T04:42:37;18.70;99.90
23560;DHT22;11958;50.836;4.438;2023-10-13T04:45:36;18.80;99.90
23560;DHT22;11958;50.836;4.438;2023-10-13T04:48:15;18.80;99.90
23560;DHT22;11958;50.836;4.438;2023-10-13T04:51:01;18.80;99.90
23560;DHT22;11958;50.836;4.438;2023-10-13T04:54:05;18.90;99.90
23560;DHT22;11958;50.836;4.438;2023-10-13T04:56:44;18.70;99.90
23560;DHT22;11958;50.836;4.438;2023-10-13T04:59:25;18.80;99.90
23560;DHT22;11958;50.836;4.438;2023-10-13T05:02:23;18.80;99.90
23560;DHT22;11958;50.836;4.438;2023-10-13T05:05:04;18.90;99.90
23560;DHT22;11958;50.836;4.438;2023-10-13T05:11:04;18.70;99.90
23560;DHT22;11958;50.836;4.438;2023-10-13T05:13:49;18.70;99.90
23560;DHT22;11958;50.836;4.438;2023-10-13T05:16:33;18.50;99.90
23560;DHT22;11958;50.836;4.438;2023-10-13T05:19:19;18.70;99.90
23560;DHT22;11958;50.836;4.438;2023-10-13T05:22:03;18.80;99.90
23560;DHT22;11958;50.836;4.438;2023-10-13T05:24:48;18.70;99.90
23560;DHT22;11958;50.836;4.438;2023-10-13T05:27:32;18.50;99.90
23560;DHT22;11958;50.836;4.438;2023-10-13T05:30:16;18.60;99.90
23560;DHT22;11958;50.836;4.438;2023-10-13T05:33:04;18.70;99.90
23560;DHT22;11958;50.836;4.438;2023-10-13T05:35:49;18.70;99.90
23560;DHT22;11958;50.836;4.438;2023-10-13T05:38:33;18.60;99.90
23560;DHT22;11958;50.836;4.438;2023-10-13T05:41:17;18.60;99.90
23560;DHT22;11958;50.836;4.438;2023-10-13T05:44:02;18.50;99.90
23560;DHT22;11958;50.836;4.438;2023-10-13T05:46:46;18.50;99.90
23560;DHT22;11958;50.836;4.438;2023-10-13T05:49:15;18.60;99.90
23560;DHT22;11958;50.836;4.438;2023-10-13T05:51:44;18.50;99.90
23560;DHT22;11958;50.836;4.438;2023-10-13T05:54:23;18.40;99.90
23560;DHT22;11958;50.836;4.438;2023-10-13T05:57:07;18.40;99.90
23560;DHT22;11958;50.836;4.438;2023-10-13T05:59:51;18.40;99.90
23560;DHT22;11958;50.836;4.438;2023-10-13T06:02:36;18.30;99.90
23560;DHT22;11958;50.836;4.438;2023-10-13T06:05:20;18.50;99.90
23560;DHT22;11958;50.836;4.438;2023-10-13T06:08:04;18.40;99.90
23560;DHT22;11958;50.836;4.438;2023-10-13T06:10:49;18.30;99.90
23560;DHT22;11958;50.836;4.438;2023-10-13T06:13:35;18.40;99.90
23560;DHT22;11958;50.836;4.438;2023-10-13T06:16:20;18.30;99.90
23560;DHT22;11958;50.836;4.438;2023-10-13T06:19:17;18.30;99.90
23560;DHT22;11958;50.836;4.438;2023-10-13T06:22:01;18.40;99.90
23560;DHT22;11958;50.836;4.438;2023-10-13T06:33:49;18.40;99.90
23560;DHT22;11958;50.836;4.438;2023-10-13T06:36:18;18.50;99.90
23560;DHT22;11958;50.836;4.438;2023-10-13T06:39:02;18.50;99.90
23560;DHT22;11958;50.836;4.438;2023-10-13T06:42:58;18.40;99.90
23560;DHT22;11958;50.836;4.438;2023-10-13T06:45:48;18.50;99.90
23560;DHT22;11958;50.836;4.438;2023-10-13T06:48:29;18.50;99.90
23560;DHT22;11958;50.836;4.438;2023-10-13T08:14:47;19.70;88.00
23560;DHT22;11958;50.836;4.438;2023-10-13T08:17:38;19.70;89.10
23560;DHT22;11958;50.836;4.438;2023-10-13T09:02:02;20.40;84.00
23560;DHT22;11958;50.836;4.438;2023-10-13T09:18:29;20.60;82.60
23560;DHT22;11958;50.836;4.438;2023-10-13T09:24:25;20.70;81.90
23560;DHT22;11958;50.836;4.438;2023-10-13T09:26:55;20.50;81.30
23560;DHT22;11958;50.836;4.438;2023-10-13T09:29:32;20.70;80.70
23560;DHT22;11958;50.836;4.438;2023-10-13T09:32:36;21.20;79.20
23560;DHT22;11958;50.836;4.438;2023-10-13T09:42:33;21.00;79.00
23560;DHT22;11958;50.836;4.438;2023-10-13T09:45:13;21.00;79.00
23560;DHT22;11958;50.836;4.438;2023-10-13T09:47:52;21.10;77.70
23560;DHT22;11958;50.836;4.438;2023-10-13T09:50:19;21.20;78.80
23560;DHT22;11958;50.836;4.438;2023-10-13T09:53:15;21.10;76.60
23560;DHT22;11958;50.836;4.438;2023-10-13T09:55:54;21.20;77.20
23560;DHT22;11958;50.836;4.438;2023-10-13T09:58:32;21.30;77.30
23560;DHT22;11958;50.836;4.438;2023-10-13T10:01:37;21.30;76.20
23560;DHT22;11958;50.836;4.438;2023-10-13T10:04:18;21.40;78.10
23560;DHT22;11958;50.836;4.438;2023-10-13T10:09:56;21.80;74.40
23560;DHT22;11958;50.836;4.438;2023-10-13T10:12:56;21.80;75.50
23560;DHT22;11958;50.836;4.438;2023-10-13T10:18:22;22.10;74.20
23560;DHT22;11958;50.836;4.438;2023-10-13T10:20:49;21.90;73.30
23560;DHT22;11958;50.836;4.438;2023-10-13T10:23:25;21.90;73.60
23560;DHT22;11958;50.836;4.438;2023-10-13T10:25:54;22.00;74.50
23560;DHT22;11958;50.836;4.438;2023-10-13T10:28:38;22.00;73.80
23560;DHT22;11958;50.836;4.438;2023-10-13T10:31:10;22.30;72.00
23560;DHT22;11958;50.836;4.438;2023-10-13T10:33:42;22.50;71.00
23560;DHT22;11958;50.836;4.438;2023-10-13T10:36:08;22.40;71.10
23560;DHT22;11958;50.836;4.438;2023-10-13T10:38:54;22.20;72.10
23560;DHT22;11958;50.836;4.438;2023-10-13T10:41:31;22.20;73.60
23560;DHT22;11958;50.836;4.438;2023-10-13T10:44:15;22.20;73.60
23560;DHT22;11958;50.836;4.438;2023-10-13T10:47:13;22.10;72.20
23560;DHT22;11958;50.836;4.438;2023-10-13T10:49:59;22.30;70.70
23560;DHT22;11958;50.836;4.438;2023-10-13T10:52:34;22.40;73.70
23560;DHT22;11958;50.836;4.438;2023-10-13T10:55:03;22.40;72.70
23560;DHT22;11958;50.836;4.438;2023-10-13T10:57:39;22.80;70.80
23560;DHT22;11958;50.836;4.438;2023-10-13T11:00:18;22.80;69.00
23560;DHT22;11958;50.836;4.438;2023-10-13T11:02:55;23.00;70.50
23560;DHT22;11958;50.836;4.438;2023-10-13T11:05:21;23.10;70.90
23560;DHT22;11958;50.836;4.438;2023-10-13T11:07:47;22.90;70.80
23560;DHT22;11958;50.836;4.438;2023-10-13T11:10:16;23.00;69.60
23560;DHT22;11958;50.836;4.438;2023-10-13T11:12:57;23.00;70.30
23560;DHT22;11958;50.836;4.438;2023-10-13T11:15:47;23.10;71.60
23560;DHT22;11958;50.836;4.438;2023-10-13T11:18:13;23.00;66.20
23560;DHT22;11958;50.836;4.438;2023-10-13T11:20:48;23.10;66.70
23560;DHT22;11958;50.836;4.438;2023-10-13T11:23:19;23.20;68.40
23560;DHT22;11958;50.836;4.438;2023-10-13T11:26:00;23.30;65.90
23560;DHT22;11958;50.836;4.438;2023-10-13T11:28:28;23.40;62.80
23560;DHT22;11958;50.836;4.438;2023-10-13T11:30:57;23.40;66.40
23560;DHT22;11958;50.836;4.438;2023-10-13T11:33:36;23.20;63.70
23560;DHT22;11958;50.836;4.438;2023-10-13T11:36:02;23.10;63.20
23560;DHT22;11958;50.836;4.438;2023-10-13T11:38:31;23.20;67.50
23560;DHT22;11958;50.836;4.438;2023-10-13T11:41:16;23.20;65.80
23560;DHT22;11958;50.836;4.438;2023-10-13T11:43:48;23.30;67.80
23560;DHT22;11958;50.836;4.438;2023-10-13T11:46:19;23.30;64.70
23560;DHT22;11958;50.836;4.438;2023-10-13T11:49:02;23.00;66.70
23560;DHT22;11958;50.836;4.438;2023-10-13T11:51:40;23.20;66.90
23560;DHT22;11958;50.836;4.438;2023-10-13T11:54:10;23.30;66.30
23560;DHT22;11958;50.836;4.438;2023-10-13T11:56:36;23.20;64.70
23560;DHT22;11958;50.836;4.438;2023-10-13T11:59:04;23.30;63.90
23560;DHT22;11958;50.836;4.438;2023-10-13T12:01:31;23.20;66.90
23560;DHT22;11958;50.836;4.438;2023-10-13T12:04:16;23.30;64.00
23560;DHT22;11958;50.836;4.438;2023-10-13T12:07:00;23.30;66.60
23560;DHT22;11958;50.836;4.438;2023-10-13T12:09:49;23.20;63.70
23560;DHT22;11958;50.836;4.438;2023-10-13T12:12:29;23.10;65.30
23560;DHT22;11958;50.836;4.438;2023-10-13T12:15:06;23.20;64.00
23560;DHT22;11958;50.836;4.438;2023-10-13T12:17:35;23.10;66.20
23560;DHT22;11958;50.836;4.438;2023-10-13T12:22:30;23.00;67.10
23560;DHT22;11958;50.836;4.438;2023-10-13T12:25:05;23.20;66.60
23560;DHT22;11958;50.836;4.438;2023-10-13T12:27:46;23.10;65.00
23560;DHT22;11958;50.836;4.438;2023-10-13T12:30:14;22.90;64.60
23560;DHT22;11958;50.836;4.438;2023-10-13T12:32:49;22.70;63.90
23560;DHT22;11958;50.836;4.438;2023-10-13T12:35:31;22.70;65.90
23560;DHT22;11958;50.836;4.438;2023-10-13T12:38:03;22.50;63.90
23560;DHT22;11958;50.836;4.438;2023-10-13T12:40:31;22.50;66.50
23560;DHT22;11958;50.836;4.438;2023-10-13T12:43:15;22.40;67.40
23560;DHT22;11958;50.836;4.438;2023-10-13T12:45:59;22.50;68.10
23560;DHT22;11958;50.836;4.438;2023-10-13T12:48:54;22.50;68.90
23560;DHT22;11958;50.836;4.438;2023-10-13T12:51:38;22.40;67.60
23560;DHT22;11958;50.836;4.438;2023-10-13T12:54:04;22.20;68.50
23560;DHT22;11958;50.836;4.438;2023-10-13T12:56:31;22.50;68.40
23560;DHT22;11958;50.836;4.438;2023-10-13T12:58:57;22.30;67.10
23560;DHT22;11958;50.836;4.438;2023-10-13T13:01:26;22.30;65.60
23560;DHT22;11958;50.836;4.438;2023-10-13T13:03:58;22.50;67.60
23560;DHT22;11958;50.836;4.438;2023-10-13T13:06:26;22.50;66.60
23560;DHT22;11958;50.836;4.438;2023-10-13T13:08:55;22.50;65.30
23560;DHT22;11958;50.836;4.438;2023-10-13T13:11:21;22.60;67.00
23560;DHT22;11958;50.836;4.438;2023-10-13T13:13:47;22.50;66.30
23560;DHT22;11958;50.836;4.438;2023-10-13T13:16:17;22.80;66.00
23560;DHT22;11958;50.836;4.438;2023-10-13T13:18:44;22.70;64.80
23560;DHT22;11958;50.836;4.438;2023-10-13T13:21:10;22.70;67.40
23560;DHT22;11958;50.836;4.438;2023-10-13T13:23:48;22.70;65.90
23560;DHT22;11958;50.836;4.438;2023-10-13T13:26:14;22.80;65.30
23560;DHT22;11958;50.836;4.438;2023-10-13T13:28:44;22.60;65.50
23560;DHT22;11958;50.836;4.438;2023-10-13T13:31:10;22.50;64.90
23560;DHT22;11958;50.836;4.438;2023-10-13T13:33:40;22.60;65.40
23560;DHT22;11958;50.836;4.438;2023-10-13T13:36:09;22.60;64.60
23560;DHT22;11958;50.836;4.438;2023-10-13T13:38:44;22.70;65.60
23560;DHT22;11958;50.836;4.438;2023-10-13T13:41:17;22.80;65.00
23560;DHT22;11958;50.836;4.438;2023-10-13T13:43:47;22.80;67.00
23560;DHT22;11958;50.836;4.438;2023-10-13T13:46:20;22.80;65.70
23560;DHT22;11958;50.836;4.438;2023-10-13T13:48:50;22.90;65.80
23560;DHT22;11958;50.836;4.438;2023-10-13T13:51:17;23.00;62.80
23560;DHT22;11958;50.836;4.438;2023-10-13T13:53:52;23.50;64.10
23560;DHT22;11958;50.836;4.438;2023-10-13T13:56:19;23.60;63.80
23560;DHT22;11958;50.836;4.438;2023-10-13T13:58:49;23.30;61.80
23560;DHT22;11958;50.836;4.438;2023-10-13T14:01:18;23.30;62.40
23560;DHT22;11958;50.836;4.438;2023-10-13T14:03:50;23.20;62.40
23560;DHT22;11958;50.836;4.438;2023-10-13T14:06:18;23.30;63.30
23560;DHT22;11958;50.836;4.438;2023-10-13T14:08:49;23.30;61.90
23560;DHT22;11958;50.836;4.438;2023-10-13T14:11:17;23.10;61.30
23560;DHT22;11958;50.836;4.438;2023-10-13T14:14:02;22.90;61.40
23560;DHT22;11958;50.836;4.438;2023-10-13T14:16:30;22.90;65.20
23560;DHT22;11958;50.836;4.438;2023-10-13T14:18:59;23.10;63.40
23560;DHT22;11958;50.836;4.438;2023-10-13T14:21:27;23.10;63.70
23560;DHT22;11958;50.836;4.438;2023-10-13T14:23:53;23.00;64.20
23560;DHT22;11958;50.836;4.438;2023-10-13T14:26:20;23.00;62.20
23560;DHT22;11958;50.836;4.438;2023-10-13T14:28:52;23.20;61.20
23560;DHT22;11958;50.836;4.438;2023-10-13T14:31:35;23.10;61.80
23560;DHT22;11958;50.836;4.438;2023-10-13T14:34:05;23.00;63.90
23560;DHT22;11958;50.836;4.438;2023-10-13T14:36:32;22.90;62.40
23560;DHT22;11958;50.836;4.438;2023-10-13T14:39:02;23.00;61.50
23560;DHT22;11958;50.836;4.438;2023-10-13T14:41:28;22.80;61.30
23560;DHT22;11958;50.836;4.438;2023-10-13T14:43:56;22.70;63.00
23560;DHT22;11958;50.836;4.438;2023-10-13T14:46:30;22.60;63.00
23560;DHT22;11958;50.836;4.438;2023-10-13T14:48:56;22.60;61.40
23560;DHT22;11958;50.836;4.438;2023-10-13T14:51:22;22.50;62.90
23560;DHT22;11958;50.836;4.438;2023-10-13T14:53:50;22.50;65.90
23560;DHT22;11958;50.836;4.438;2023-10-13T14:56:22;22.20;66.10
23560;DHT22;11958;50.836;4.438;2023-10-13T14:58:51;22.20;66.00
23560;DHT22;11958;50.836;4.438;2023-10-13T15:01:18;22.30;65.80
23560;DHT22;11958;50.836;4.438;2023-10-13T15:03:50;22.10;66.80
23560;DHT22;11958;50.836;4.438;2023-10-13T15:06:20;22.10;66.70
23560;DHT22;11958;50.836;4.438;2023-10-13T15:08:47;22.10;65.90
23560;DHT22;11958;50.836;4.438;2023-10-13T15:11:13;22.10;66.60
23560;DHT22;11958;50.836;4.438;2023-10-13T15:13:40;22.20;64.70
23560;DHT22;11958;50.836;4.438;2023-10-13T15:16:14;22.20;66.50
23560;DHT22;11958;50.836;4.438;2023-10-13T15:18:40;22.20;66.00
23560;DHT22;11958;50.836;4.438;2023-10-13T15:21:06;22.00;65.80
23560;DHT22;11958;50.836;4.438;2023-10-13T15:23:34;22.00;66.80
23560;DHT22;11958;50.836;4.438;2023-10-13T15:26:08;21.90;66.60
23560;DHT22;11958;50.836;4.438;2023-10-13T15:28:42;22.00;66.80
23560;DHT22;11958;50.836;4.438;2023-10-13T15:31:17;21.80;69.20
23560;DHT22;11958;50.836;4.438;2023-10-13T15:33:54;21.70;69.20
23560;DHT22;11958;50.836;4.438;2023-10-13T15:36:24;21.70;68.50
23560;DHT22;11958;50.836;4.438;2023-10-13T15:38:50;21.50;69.70
23560;DHT22;11958;50.836;4.438;2023-10-13T15:41:23;21.50;69.10
23560;DHT22;11958;50.836;4.438;2023-10-13T15:43:49;21.40;72.00
23560;DHT22;11958;50.836;4.438;2023-10-13T15:46:17;21.40;70.40
23560;DHT22;11958;50.836;4.438;2023-10-13T15:49:07;21.40;70.90
23560;DHT22;11958;50.836;4.438;2023-10-13T15:51:37;21.20;70.20
23560;DHT22;11958;50.836;4.438;2023-10-13T15:54:04;21.40;70.10
23560;DHT22;11958;50.836;4.438;2023-10-13T15:56:30;21.50;69.60
23560;DHT22;11958;50.836;4.438;2023-10-13T15:59:01;21.50;69.00
23560;DHT22;11958;50.836;4.438;2023-10-13T16:01:27;21.40;70.30
23560;DHT22;11958;50.836;4.438;2023-10-13T16:03:54;21.40;70.90
23560;DHT22;11958;50.836;4.438;2023-10-13T16:06:20;21.30;71.10
23560;DHT22;11958;50.836;4.438;2023-10-13T16:09:20;21.30;72.00
23560;DHT22;11958;50.836;4.438;2023-10-13T16:11:49;21.40;71.30
23560;DHT22;11958;50.836;4.438;2023-10-13T16:14:15;21.30;71.70
23560;DHT22;11958;50.836;4.438;2023-10-13T16:17:01;21.40;72.10
23560;DHT22;11958;50.836;4.438;2023-10-13T16:19:27;21.30;72.10
23560;DHT22;11958;50.836;4.438;2023-10-13T16:21:54;21.10;73.30
23560;DHT22;11958;50.836;4.438;2023-10-13T16:24:20;21.00;74.10
23560;DHT22;11958;50.836;4.438;2023-10-13T16:26:47;21.10;74.70
23560;DHT22;11958;50.836;4.438;2023-10-13T16:29:21;21.00;74.80
23560;DHT22;11958;50.836;4.438;2023-10-13T16:31:49;20.90;76.60
23560;DHT22;11958;50.836;4.438;2023-10-13T16:34:16;20.70;76.90
23560;DHT22;11958;50.836;4.438;2023-10-13T16:36:46;20.60;77.80
23560;DHT22;11958;50.836;4.438;2023-10-13T16:39:13;20.60;78.90
23560;DHT22;11958;50.836;4.438;2023-10-13T16:41:43;20.60;78.80
23560;DHT22;11958;50.836;4.438;2023-10-13T16:44:11;20.50;79.10
23560;DHT22;11958;50.836;4.438;2023-10-13T16:46:40;20.30;79.50
23560;DHT22;11958;50.836;4.438;2023-10-13T16:49:08;20.30;79.60
23560;DHT22;11958;50.836;4.438;2023-10-13T16:51:42;20.30;80.30
23560;DHT22;11958;50.836;4.438;2023-10-13T16:54:07;20.30;79.40
23560;DHT22;11958;50.836;4.438;2023-10-13T16:56:33;20.20;80.90
23560;DHT22;11958;50.836;4.438;2023-10-13T16:59:09;20.20;81.30
23560;DHT22;11958;50.836;4.438;2023-10-13T17:01:35;20.30;81.00
23560;DHT22;11958;50.836;4.438;2023-10-13T17:04:02;20.40;80.40
23560;DHT22;11958;50.836;4.438;2023-10-13T17:09:37;20.20;80.80
23560;DHT22;11958;50.836;4.438;2023-10-13T17:15:31;20.10;82.00
23560;DHT22;11958;50.836;4.438;2023-10-13T17:18:01;20.20;80.90
23560;DHT22;11958;50.836;4.438;2023-10-13T17:20:34;20.20;81.60
23560;DHT22;11958;50.836;4.438;2023-10-13T17:23:04;20.00;82.30
23560;DHT22;11958;50.836;4.438;2023-10-13T17:32:25;19.90;80.90
23560;DHT22;11958;50.836;4.438;2023-10-13T17:34:50;20.10;81.40
23560;DHT22;11958;50.836;4.438;2023-10-13T17:37:16;20.20;81.30
23560;DHT22;11958;50.836;4.438;2023-10-13T17:39:42;20.20;81.50
23560;DHT22;11958;50.836;4.438;2023-10-13T17:42:09;20.10;80.70
23560;DHT22;11958;50.836;4.438;2023-10-13T17:44:39;20.20;80.70
23560;DHT22;11958;50.836;4.438;2023-10-13T17:47:13;20.20;80.40
23560;DHT22;11958;50.836;4.438;2023-10-13T17:49:40;20.40;80.50
23560;DHT22;11958;50.836;4.438;2023-10-13T17:52:09;20.30;79.60
23560;DHT22;11958;50.836;4.438;2023-10-13T17:54:44;20.50;79.60
23560;DHT22;11958;50.836;4.438;2023-10-13T17:57:10;20.60;78.00
23560;DHT22;11958;50.836;4.438;2023-10-13T17:59:35;20.50;78.30
23560;DHT22;11958;50.836;4.438;2023-10-13T18:02:06;20.50;78.20
23560;DHT22;11958;50.836;4.438;2023-10-13T18:04:32;20.90;76.60
23560;DHT22;11958;50.836;4.438;2023-10-13T18:06:58;21.00;76.00
23560;DHT22;11958;50.836;4.438;2023-10-13T18:09:23;20.70;77.50
23560;DHT22;11958;50.836;4.438;2023-10-13T18:11:50;20.70;77.40
23560;DHT22;11958;50.836;4.438;2023-10-13T18:14:17;20.80;77.30
23560;DHT22;11958;50.836;4.438;2023-10-13T18:16:42;20.60;77.50
23560;DHT22;11958;50.836;4.438;2023-10-13T18:19:10;20.80;77.50
23560;DHT22;11958;50.836;4.438;2023-10-13T18:21:43;20.70;76.70
23560;DHT22;11958;50.836;4.438;2023-10-13T18:24:17;20.80;76.40
23560;DHT22;11958;50.836;4.438;2023-10-13T18:30:24;20.50;80.30
23560;DHT22;11958;50.836;4.438;2023-10-13T18:32:53;20.10;81.90
23560;DHT22;11958;50.836;4.438;2023-10-13T18:35:23;19.90;83.10
23560;DHT22;11958;50.836;4.438;2023-10-13T18:37:48;19.70;84.20
23560;DHT22;11958;50.836;4.438;2023-10-13T18:40:14;19.60;84.70
23560;DHT22;11958;50.836;4.438;2023-10-13T18:42:42;19.60;84.40
23560;DHT22;11958;50.836;4.438;2023-10-13T18:45:16;19.50;85.30
23560;DHT22;11958;50.836;4.438;2023-10-13T18:47:44;19.60;85.60
23560;DHT22;11958;50.836;4.438;2023-10-13T18:50:12;19.50;85.20
23560;DHT22;11958;50.836;4.438;2023-10-13T18:52:41;19.60;86.30
23560;DHT22;11958;50.836;4.438;2023-10-13T18:55:09;19.70;85.10
23560;DHT22;11958;50.836;4.438;2023-10-13T18:57:42;19.80;84.40
23560;DHT22;11958;50.836;4.438;2023-10-13T19:00:22;20.00;83.40
23560;DHT22;11958;50.836;4.438;2023-10-13T19:02:51;20.00;82.50
23560;DHT22;11958;50.836;4.438;2023-10-13T19:05:19;20.00;82.90
23560;DHT22;11958;50.836;4.438;2023-10-13T19:07:45;20.10;82.30
23560;DHT22;11958;50.836;4.438;2023-10-13T19:10:11;20.00;81.80
23560;DHT22;11958;50.836;4.438;2023-10-13T19:12:50;20.00;81.60
23560;DHT22;11958;50.836;4.438;2023-10-13T19:15:20;20.10;82.60
23560;DHT22;11958;50.836;4.438;2023-10-13T19:17:50;20.20;82.10
23560;DHT22;11958;50.836;4.438;2023-10-13T19:20:30;20.30;81.80
23560;DHT22;11958;50.836;4.438;2023-10-13T19:23:06;20.20;82.10
23560;DHT22;11958;50.836;4.438;2023-10-13T19:25:37;20.10;81.80
23560;DHT22;11958;50.836;4.438;2023-10-13T19:28:03;20.00;82.70
23560;DHT22;11958;50.836;4.438;2023-10-13T19:30:29;20.30;81.50